sensor_id;sensor_type;location;lat;lon;timestamp;P1;durP1;ratioP1;P2;durP2;ratioP2
50976;SDS011;36992;48.200;12.418;2023-12-20T00:00:55;3.58;;;1.25;;
50976;SDS011;36992;48.200;12.418;2023-12-20T00:03:24;4.20;;;1.50;;
50976;SDS011;36992;48.200;12.418;2023-12-20T00:05:51;4.07;;;1.70;;
50976;SDS011;36992;48.200;12.418;2023-12-20T00:08:17;4.35;;;1.85;;
50976;SDS011;36992;48.200;12.418;2023-12-20T00:10:44;4.57;;;1.35;;
50976;SDS011;36992;48.200;12.418;2023-12-20T00:13:10;5.07;;;2.28;;
50976;SDS011;36992;48.200;12.418;2023-12-20T00:15:37;4.13;;;1.23;;
50976;SDS011;36992;48.200;12.418;2023-12-20T00:18:05;3.20;;;1.63;;
50976;SDS011;36992;48.200;12.418;2023-12-20T00:20:32;3.17;;;1.30;;
50976;SDS011;36992;48.200;12.418;2023-12-20T00:22:58;3.83;;;1.20;;
50976;SDS011;36992;48.200;12.418;2023-12-20T00:25:25;3.05;;;1.20;;
50976;SDS011;36992;48.200;12.418;2023-12-20T00:27:52;4.07;;;1.15;;
50976;SDS011;36992;48.200;12.418;2023-12-20T00:30:18;2.22;;;0.98;;
50976;SDS011;36992;48.200;12.418;2023-12-20T00:32:45;4.25;;;1.10;;
50976;SDS011;36992;48.200;12.418;2023-12-20T00:35:13;2.33;;;1.05;;
50976;SDS011;36992;48.200;12.418;2023-12-20T00:37:40;2.20;;;0.88;;
50976;SDS011;36992;48.200;12.418;2023-12-20T00:40:07;2.15;;;0.90;;
50976;SDS011;36992;48.200;12.418;2023-12-20T00:42:34;2.42;;;0.90;;
50976;SDS011;36992;48.200;12.418;2023-12-20T00:45:01;2.60;;;0.77;;
50976;SDS011;36992;48.200;12.418;2023-12-20T00:47:27;1.70;;;0.70;;
50976;SDS011;36992;48.200;12.418;2023-12-20T00:49:54;2.55;;;0.70;;
50976;SDS011;36992;48.200;12.418;2023-12-20T00:52:22;3.22;;;0.80;;
50976;SDS011;36992;48.200;12.418;2023-12-20T00:54:48;2.22;;;0.82;;
50976;SDS011;36992;48.200;12.418;2023-12-20T00:57:15;2.35;;;0.70;;
50976;SDS011;36992;48.200;12.418;2023-12-20T00:59:41;1.20;;;0.50;;
50976;SDS011;36992;48.200;12.418;2023-12-20T01:02:08;2.08;;;0.80;;
50976;SDS011;36992;48.200;12.418;2023-12-20T01:04:35;2.13;;;1.08;;
50976;SDS011;36992;48.200;12.418;2023-12-20T01:07:01;2.08;;;0.75;;
50976;SDS011;36992;48.200;12.418;2023-12-20T01:09:29;2.35;;;0.75;;
50976;SDS011;36992;48.200;12.418;2023-12-20T01:11:56;2.33;;;0.80;;
50976;SDS011;36992;48.200;12.418;2023-12-20T01:14:22;2.08;;;0.68;;
50976;SDS011;36992;48.200;12.418;2023-12-20T01:16:49;2.03;;;0.70;;
50976;SDS011;36992;48.200;12.418;2023-12-20T01:19:15;1.60;;;0.60;;
50976;SDS011;36992;48.200;12.418;2023-12-20T01:21:42;1.67;;;0.52;;
50976;SDS011;36992;48.200;12.418;2023-12-20T01:24:09;2.90;;;0.52;;
50976;SDS011;36992;48.200;12.418;2023-12-20T01:26:37;1.67;;;0.60;;
50976;SDS011;36992;48.200;12.418;2023-12-20T01:29:03;1.55;;;0.50;;
50976;SDS011;36992;48.200;12.418;2023-12-20T01:31:30;2.05;;;0.57;;
50976;SDS011;36992;48.200;12.418;2023-12-20T01:33:56;1.63;;;0.52;;
50976;SDS011;36992;48.200;12.418;2023-12-20T01:36:23;1.63;;;0.55;;
50976;SDS011;36992;48.200;12.418;2023-12-20T01:38:50;2.50;;;0.60;;
50976;SDS011;36992;48.200;12.418;2023-12-20T01:41:16;1.95;;;0.60;;
50976;SDS011;36992;48.200;12.418;2023-12-20T01:43:44;2.30;;;0.57;;
50976;SDS011;36992;48.200;12.418;2023-12-20T01:46:10;2.20;;;0.70;;
50976;SDS011;36992;48.200;12.418;2023-12-20T01:48:38;2.22;;;0.68;;
50976;SDS011;36992;48.200;12.418;2023-12-20T01:51:04;3.13;;;0.65;;
50976;SDS011;36992;48.200;12.418;2023-12-20T01:53:31;1.98;;;0.68;;
50976;SDS011;36992;48.200;12.418;2023-12-20T01:55:58;2.40;;;0.90;;
50976;SDS011;36992;48.200;12.418;2023-12-20T01:58:25;1.77;;;0.60;;
50976;SDS011;36992;48.200;12.418;2023-12-20T02:00:53;1.83;;;0.57;;
50976;SDS011;36992;48.200;12.418;2023-12-20T02:03:20;2.20;;;0.75;;
50976;SDS011;36992;48.200;12.418;2023-12-20T02:05:47;2.72;;;1.10;;
50976;SDS011;36992;48.200;12.418;2023-12-20T02:08:14;4.28;;;1.00;;
50976;SDS011;36992;48.200;12.418;2023-12-20T02:10:40;2.58;;;0.98;;
50976;SDS011;36992;48.200;12.418;2023-12-20T02:13:07;2.22;;;0.60;;
50976;SDS011;36992;48.200;12.418;2023-12-20T02:15:33;2.20;;;0.65;;
50976;SDS011;36992;48.200;12.418;2023-12-20T02:18:03;2.05;;;0.77;;
50976;SDS011;36992;48.200;12.418;2023-12-20T02:20:30;2.30;;;0.70;;
50976;SDS011;36992;48.200;12.418;2023-12-20T02:22:58;1.90;;;0.57;;
50976;SDS011;36992;48.200;12.418;2023-12-20T02:25:24;1.77;;;0.75;;
50976;SDS011;36992;48.200;12.418;2023-12-20T02:27:51;1.38;;;0.63;;
50976;SDS011;36992;48.200;12.418;2023-12-20T02:30:18;2.97;;;0.90;;
50976;SDS011;36992;48.200;12.418;2023-12-20T02:32:44;3.33;;;1.10;;
50976;SDS011;36992;48.200;12.418;2023-12-20T02:35:11;2.40;;;1.00;;
50976;SDS011;36992;48.200;12.418;2023-12-20T02:37:37;2.45;;;0.73;;
50976;SDS011;36992;48.200;12.418;2023-12-20T02:40:06;1.65;;;0.57;;
50976;SDS011;36992;48.200;12.418;2023-12-20T02:42:33;2.67;;;0.80;;
50976;SDS011;36992;48.200;12.418;2023-12-20T02:44:59;1.95;;;0.40;;
50976;SDS011;36992;48.200;12.418;2023-12-20T02:47:26;2.40;;;0.80;;
50976;SDS011;36992;48.200;12.418;2023-12-20T02:49:51;2.67;;;0.52;;
50976;SDS011;36992;48.200;12.418;2023-12-20T02:52:18;2.67;;;1.05;;
50976;SDS011;36992;48.200;12.418;2023-12-20T02:54:45;2.28;;;0.88;;
50976;SDS011;36992;48.200;12.418;2023-12-20T02:57:13;2.00;;;0.60;;
50976;SDS011;36992;48.200;12.418;2023-12-20T02:59:39;2.83;;;0.55;;
50976;SDS011;36992;48.200;12.418;2023-12-20T03:02:06;2.42;;;1.10;;
50976;SDS011;36992;48.200;12.418;2023-12-20T03:04:32;1.58;;;0.68;;
50976;SDS011;36992;48.200;12.418;2023-12-20T03:06:59;2.83;;;0.90;;
50976;SDS011;36992;48.200;12.418;2023-12-20T03:09:25;2.00;;;0.65;;
50976;SDS011;36992;48.200;12.418;2023-12-20T03:11:52;2.53;;;0.80;;
50976;SDS011;36992;48.200;12.418;2023-12-20T03:14:20;2.85;;;0.80;;
50976;SDS011;36992;48.200;12.418;2023-12-20T03:16:46;1.63;;;0.80;;
50976;SDS011;36992;48.200;12.418;2023-12-20T03:19:13;2.70;;;1.08;;
50976;SDS011;36992;48.200;12.418;2023-12-20T03:21:41;2.70;;;1.33;;
50976;SDS011;36992;48.200;12.418;2023-12-20T03:24:07;3.40;;;1.00;;
50976;SDS011;36992;48.200;12.418;2023-12-20T03:26:34;3.90;;;0.82;;
50976;SDS011;36992;48.200;12.418;2023-12-20T03:29:01;4.38;;;1.90;;
50976;SDS011;36992;48.200;12.418;2023-12-20T03:31:28;3.50;;;1.48;;
50976;SDS011;36992;48.200;12.418;2023-12-20T03:33:55;5.30;;;1.65;;
50976;SDS011;36992;48.200;12.418;2023-12-20T03:36:21;2.42;;;1.00;;
50976;SDS011;36992;48.200;12.418;2023-12-20T03:38:48;2.90;;;0.85;;
50976;SDS011;36992;48.200;12.418;2023-12-20T03:41:14;3.70;;;1.00;;
50976;SDS011;36992;48.200;12.418;2023-12-20T03:43:41;2.53;;;0.80;;
50976;SDS011;36992;48.200;12.418;2023-12-20T03:46:08;3.15;;;0.88;;
50976;SDS011;36992;48.200;12.418;2023-12-20T03:48:36;2.47;;;0.90;;
50976;SDS011;36992;48.200;12.418;2023-12-20T03:51:02;2.63;;;0.90;;
50976;SDS011;36992;48.200;12.418;2023-12-20T03:53:29;2.28;;;0.88;;
50976;SDS011;36992;48.200;12.418;2023-12-20T03:55:55;3.95;;;0.90;;
50976;SDS011;36992;48.200;12.418;2023-12-20T03:58:21;4.20;;;0.90;;
50976;SDS011;36992;48.200;12.418;2023-12-20T04:00:48;1.80;;;0.60;;
50976;SDS011;36992;48.200;12.418;2023-12-20T04:03:14;2.38;;;0.70;;
50976;SDS011;36992;48.200;12.418;2023-12-20T04:05:42;2.28;;;0.90;;
50976;SDS011;36992;48.200;12.418;2023-12-20T04:08:09;2.03;;;0.60;;
50976;SDS011;36992;48.200;12.418;2023-12-20T04:10:36;2.53;;;1.10;;
50976;SDS011;36992;48.200;12.418;2023-12-20T04:13:03;2.70;;;1.00;;
50976;SDS011;36992;48.200;12.418;2023-12-20T04:15:30;2.97;;;1.30;;
50976;SDS011;36992;48.200;12.418;2023-12-20T04:17:56;1.50;;;0.60;;
50976;SDS011;36992;48.200;12.418;2023-12-20T04:20:23;3.65;;;0.75;;
50976;SDS011;36992;48.200;12.418;2023-12-20T04:22:50;1.50;;;0.43;;
50976;SDS011;36992;48.200;12.418;2023-12-20T04:25:17;1.55;;;0.60;;
50976;SDS011;36992;48.200;12.418;2023-12-20T04:27:43;1.77;;;0.63;;
50976;SDS011;36992;48.200;12.418;2023-12-20T04:30:11;2.10;;;0.90;;
50976;SDS011;36992;48.200;12.418;2023-12-20T04:32:37;2.30;;;0.63;;
50976;SDS011;36992;48.200;12.418;2023-12-20T04:35:04;2.30;;;0.47;;
50976;SDS011;36992;48.200;12.418;2023-12-20T04:37:30;2.40;;;0.43;;
50976;SDS011;36992;48.200;12.418;2023-12-20T04:39:58;2.10;;;0.40;;
50976;SDS011;36992;48.200;12.418;2023-12-20T04:42:24;1.60;;;0.50;;
50976;SDS011;36992;48.200;12.418;2023-12-20T04:44:51;2.03;;;0.70;;
50976;SDS011;36992;48.200;12.418;2023-12-20T04:47:17;2.30;;;0.60;;
50976;SDS011;36992;48.200;12.418;2023-12-20T04:49:44;0.98;;;0.40;;
50976;SDS011;36992;48.200;12.418;2023-12-20T04:52:10;1.08;;;0.40;;
50976;SDS011;36992;48.200;12.418;2023-12-20T04:54:37;1.58;;;0.50;;
50976;SDS011;36992;48.200;12.418;2023-12-20T04:57:04;1.50;;;0.68;;
50976;SDS011;36992;48.200;12.418;2023-12-20T04:59:31;1.00;;;0.30;;
50976;SDS011;36992;48.200;12.418;2023-12-20T05:01:57;0.82;;;0.30;;
50976;SDS011;36992;48.200;12.418;2023-12-20T05:04:24;2.50;;;0.90;;
50976;SDS011;36992;48.200;12.418;2023-12-20T05:06:50;1.75;;;0.60;;
50976;SDS011;36992;48.200;12.418;2023-12-20T05:09:17;1.55;;;0.60;;
50976;SDS011;36992;48.200;12.418;2023-12-20T05:11:43;1.67;;;0.40;;
50976;SDS011;36992;48.200;12.418;2023-12-20T05:14:11;3.38;;;0.63;;
50976;SDS011;36992;48.200;12.418;2023-12-20T05:16:38;1.70;;;0.55;;
50976;SDS011;36992;48.200;12.418;2023-12-20T05:19:04;1.67;;;0.70;;
50976;SDS011;36992;48.200;12.418;2023-12-20T05:21:31;1.25;;;0.50;;
50976;SDS011;36992;48.200;12.418;2023-12-20T05:23:58;1.92;;;0.80;;
50976;SDS011;36992;48.200;12.418;2023-12-20T05:26:25;1.63;;;0.50;;
50976;SDS011;36992;48.200;12.418;2023-12-20T05:28:51;1.35;;;0.43;;
50976;SDS011;36992;48.200;12.418;2023-12-20T05:31:19;1.88;;;0.70;;
50976;SDS011;36992;48.200;12.418;2023-12-20T05:33:46;2.25;;;1.00;;
50976;SDS011;36992;48.200;12.418;2023-12-20T05:36:13;1.65;;;0.60;;
50976;SDS011;36992;48.200;12.418;2023-12-20T05:38:40;3.00;;;0.60;;
50976;SDS011;36992;48.200;12.418;2023-12-20T05:41:06;1.23;;;0.65;;
50976;SDS011;36992;48.200;12.418;2023-12-20T05:43:33;1.85;;;0.68;;
50976;SDS011;36992;48.200;12.418;2023-12-20T05:45:59;1.52;;;0.50;;
50976;SDS011;36992;48.200;12.418;2023-12-20T05:48:27;1.70;;;0.55;;
50976;SDS011;36992;48.200;12.418;2023-12-20T05:50:54;1.63;;;0.40;;
50976;SDS011;36992;48.200;12.418;2023-12-20T05:53:20;1.20;;;0.47;;
50976;SDS011;36992;48.200;12.418;2023-12-20T05:55:47;1.02;;;0.35;;
50976;SDS011;36992;48.200;12.418;2023-12-20T05:58:13;0.88;;;0.20;;
50976;SDS011;36992;48.200;12.418;2023-12-20T06:00:40;0.80;;;0.30;;
50976;SDS011;36992;48.200;12.418;2023-12-20T06:03:06;1.00;;;0.30;;
50976;SDS011;36992;48.200;12.418;2023-12-20T06:05:34;0.40;;;0.20;;
50976;SDS011;36992;48.200;12.418;2023-12-20T06:08:00;1.50;;;0.20;;
50976;SDS011;36992;48.200;12.418;2023-12-20T06:10:28;1.10;;;0.40;;
50976;SDS011;36992;48.200;12.418;2023-12-20T06:12:54;1.42;;;0.30;;
50976;SDS011;36992;48.200;12.418;2023-12-20T06:15:21;0.60;;;0.20;;
50976;SDS011;36992;48.200;12.418;2023-12-20T06:17:48;1.23;;;0.30;;
50976;SDS011;36992;48.200;12.418;2023-12-20T06:20:15;1.38;;;0.30;;
50976;SDS011;36992;48.200;12.418;2023-12-20T06:22:42;0.90;;;0.30;;
50976;SDS011;36992;48.200;12.418;2023-12-20T06:25:09;0.40;;;0.20;;
50976;SDS011;36992;48.200;12.418;2023-12-20T06:27:35;0.98;;;0.25;;
50976;SDS011;36992;48.200;12.418;2023-12-20T06:30:02;0.55;;;0.20;;
50976;SDS011;36992;48.200;12.418;2023-12-20T06:32:29;1.75;;;0.22;;
50976;SDS011;36992;48.200;12.418;2023-12-20T06:34:56;0.85;;;0.20;;
50976;SDS011;36992;48.200;12.418;2023-12-20T06:37:22;0.88;;;0.22;;
50976;SDS011;36992;48.200;12.418;2023-12-20T06:39:50;1.77;;;0.70;;
50976;SDS011;36992;48.200;12.418;2023-12-20T06:42:16;0.88;;;0.20;;
50976;SDS011;36992;48.200;12.418;2023-12-20T06:44:43;0.40;;;0.20;;
50976;SDS011;36992;48.200;12.418;2023-12-20T06:47:10;1.38;;;0.30;;
50976;SDS011;36992;48.200;12.418;2023-12-20T06:49:36;0.93;;;0.22;;
50976;SDS011;36992;48.200;12.418;2023-12-20T06:52:03;0.65;;;0.20;;
50976;SDS011;36992;48.200;12.418;2023-12-20T06:54:29;0.70;;;0.50;;
50976;SDS011;36992;48.200;12.418;2023-12-20T06:56:57;0.55;;;0.35;;
50976;SDS011;36992;48.200;12.418;2023-12-20T06:59:24;0.65;;;0.28;;
50976;SDS011;36992;48.200;12.418;2023-12-20T07:01:51;1.55;;;0.32;;
50976;SDS011;36992;48.200;12.418;2023-12-20T07:04:17;1.05;;;0.38;;
50976;SDS011;36992;48.200;12.418;2023-12-20T07:06:46;1.25;;;0.35;;
50976;SDS011;36992;48.200;12.418;2023-12-20T07:09:13;1.00;;;0.40;;
50976;SDS011;36992;48.200;12.418;2023-12-20T07:11:40;1.83;;;0.50;;
50976;SDS011;36992;48.200;12.418;2023-12-20T07:14:08;0.68;;;0.20;;
50976;SDS011;36992;48.200;12.418;2023-12-20T07:16:34;0.80;;;0.30;;
50976;SDS011;36992;48.200;12.418;2023-12-20T07:19:01;1.20;;;0.45;;
50976;SDS011;36992;48.200;12.418;2023-12-20T07:21:28;0.98;;;0.40;;
50976;SDS011;36992;48.200;12.418;2023-12-20T07:23:54;0.95;;;0.35;;
50976;SDS011;36992;48.200;12.418;2023-12-20T07:26:21;1.02;;;0.45;;
50976;SDS011;36992;48.200;12.418;2023-12-20T07:28:48;0.80;;;0.30;;
50976;SDS011;36992;48.200;12.418;2023-12-20T07:31:16;0.47;;;0.20;;
50976;SDS011;36992;48.200;12.418;2023-12-20T07:33:42;0.80;;;0.25;;
50976;SDS011;36992;48.200;12.418;2023-12-20T07:36:09;0.90;;;0.40;;
50976;SDS011;36992;48.200;12.418;2023-12-20T07:38:36;1.27;;;0.30;;
50976;SDS011;36992;48.200;12.418;2023-12-20T07:41:03;0.50;;;0.20;;
50976;SDS011;36992;48.200;12.418;2023-12-20T07:43:30;1.48;;;0.30;;
50976;SDS011;36992;48.200;12.418;2023-12-20T07:45:56;0.73;;;0.30;;
50976;SDS011;36992;48.200;12.418;2023-12-20T07:48:24;1.58;;;0.20;;
50976;SDS011;36992;48.200;12.418;2023-12-20T07:50:51;0.60;;;0.20;;
50976;SDS011;36992;48.200;12.418;2023-12-20T07:53:19;0.40;;;0.20;;
50976;SDS011;36992;48.200;12.418;2023-12-20T07:55:45;1.00;;;0.20;;
50976;SDS011;36992;48.200;12.418;2023-12-20T07:58:12;0.50;;;0.20;;
50976;SDS011;36992;48.200;12.418;2023-12-20T08:00:38;0.45;;;0.20;;
50976;SDS011;36992;48.200;12.418;2023-12-20T08:03:04;0.60;;;0.25;;
50976;SDS011;36992;48.200;12.418;2023-12-20T08:05:33;0.55;;;0.20;;
50976;SDS011;36992;48.200;12.418;2023-12-20T08:07:59;0.80;;;0.20;;
50976;SDS011;36992;48.200;12.418;2023-12-20T08:10:26;0.63;;;0.28;;
50976;SDS011;36992;48.200;12.418;2023-12-20T08:12:54;0.73;;;0.20;;
50976;SDS011;36992;48.200;12.418;2023-12-20T08:15:21;1.02;;;0.20;;
50976;SDS011;36992;48.200;12.418;2023-12-20T08:17:47;1.23;;;0.40;;
50976;SDS011;36992;48.200;12.418;2023-12-20T08:20:15;1.17;;;0.30;;
50976;SDS011;36992;48.200;12.418;2023-12-20T08:22:43;0.75;;;0.20;;
50976;SDS011;36992;48.200;12.418;2023-12-20T08:25:10;1.23;;;0.35;;
50976;SDS011;36992;48.200;12.418;2023-12-20T08:27:38;1.40;;;0.30;;
50976;SDS011;36992;48.200;12.418;2023-12-20T08:30:06;1.60;;;0.40;;
50976;SDS011;36992;48.200;12.418;2023-12-20T08:32:34;0.65;;;0.22;;
50976;SDS011;36992;48.200;12.418;2023-12-20T08:35:01;0.63;;;0.20;;
50976;SDS011;36992;48.200;12.418;2023-12-20T08:37:28;1.23;;;0.40;;
50976;SDS011;36992;48.200;12.418;2023-12-20T08:39:56;0.90;;;0.40;;
50976;SDS011;36992;48.200;12.418;2023-12-20T08:42:23;0.40;;;0.20;;
50976;SDS011;36992;48.200;12.418;2023-12-20T08:44:55;1.08;;;0.40;;
50976;SDS011;36992;48.200;12.418;2023-12-20T08:47:22;1.98;;;0.20;;
50976;SDS011;36992;48.200;12.418;2023-12-20T08:49:49;1.70;;;0.73;;
50976;SDS011;36992;48.200;12.418;2023-12-20T08:52:15;0.95;;;0.20;;
50976;SDS011;36992;48.200;12.418;2023-12-20T08:54:42;0.65;;;0.22;;
50976;SDS011;36992;48.200;12.418;2023-12-20T08:57:10;1.00;;;0.20;;
50976;SDS011;36992;48.200;12.418;2023-12-20T08:59:37;0.68;;;0.10;;
50976;SDS011;36992;48.200;12.418;2023-12-20T09:02:03;0.30;;;0.10;;
50976;SDS011;36992;48.200;12.418;2023-12-20T09:04:30;0.60;;;0.13;;
50976;SDS011;36992;48.200;12.418;2023-12-20T09:06:59;1.00;;;0.20;;
50976;SDS011;36992;48.200;12.418;2023-12-20T09:09:26;1.80;;;0.20;;
50976;SDS011;36992;48.200;12.418;2023-12-20T09:11:52;0.60;;;0.20;;
50976;SDS011;36992;48.200;12.418;2023-12-20T09:14:20;0.95;;;0.20;;
50976;SDS011;36992;48.200;12.418;2023-12-20T09:16:47;0.40;;;0.10;;
50976;SDS011;36992;48.200;12.418;2023-12-20T09:19:16;0.30;;;0.10;;
50976;SDS011;36992;48.200;12.418;2023-12-20T09:21:42;2.03;;;0.15;;
50976;SDS011;36992;48.200;12.418;2023-12-20T09:24:09;0.35;;;0.10;;
50976;SDS011;36992;48.200;12.418;2023-12-20T09:26:36;0.50;;;0.20;;
50976;SDS011;36992;48.200;12.418;2023-12-20T09:29:02;1.15;;;0.20;;
50976;SDS011;36992;48.200;12.418;2023-12-20T09:31:30;0.60;;;0.20;;
50976;SDS011;36992;48.200;12.418;2023-12-20T09:33:57;0.50;;;0.10;;
50976;SDS011;36992;48.200;12.418;2023-12-20T09:36:23;0.55;;;0.20;;
50976;SDS011;36992;48.200;12.418;2023-12-20T09:38:50;0.52;;;0.20;;
50976;SDS011;36992;48.200;12.418;2023-12-20T09:41:16;0.47;;;0.10;;
50976;SDS011;36992;48.200;12.418;2023-12-20T09:43:43;0.30;;;0.10;;
50976;SDS011;36992;48.200;12.418;2023-12-20T09:46:09;1.05;;;0.20;;
50976;SDS011;36992;48.200;12.418;2023-12-20T09:48:39;0.22;;;0.10;;
50976;SDS011;36992;48.200;12.418;2023-12-20T09:51:07;0.75;;;0.40;;
50976;SDS011;36992;48.200;12.418;2023-12-20T09:53:33;0.20;;;0.10;;
50976;SDS011;36992;48.200;12.418;2023-12-20T09:56:04;0.80;;;0.20;;
50976;SDS011;36992;48.200;12.418;2023-12-20T09:58:32;0.57;;;0.22;;
50976;SDS011;36992;48.200;12.418;2023-12-20T10:00:58;0.77;;;0.22;;
50976;SDS011;36992;48.200;12.418;2023-12-20T10:03:26;0.95;;;0.30;;
50976;SDS011;36992;48.200;12.418;2023-12-20T10:05:56;1.17;;;0.20;;
50976;SDS011;36992;48.200;12.418;2023-12-20T10:08:24;0.93;;;0.13;;
50976;SDS011;36992;48.200;12.418;2023-12-20T10:10:50;0.77;;;0.30;;
50976;SDS011;36992;48.200;12.418;2023-12-20T10:13:17;0.35;;;0.10;;
50976;SDS011;36992;48.200;12.418;2023-12-20T10:15:43;0.52;;;0.22;;
50976;SDS011;36992;48.200;12.418;2023-12-20T10:18:11;0.40;;;0.10;;
50976;SDS011;36992;48.200;12.418;2023-12-20T10:20:39;0.22;;;0.10;;
50976;SDS011;36992;48.200;12.418;2023-12-20T10:23:09;0.25;;;0.10;;
50976;SDS011;36992;48.200;12.418;2023-12-20T10:25:37;0.47;;;0.20;;
50976;SDS011;36992;48.200;12.418;2023-12-20T10:28:10;0.50;;;0.20;;
50976;SDS011;36992;48.200;12.418;2023-12-20T10:30:38;0.93;;;0.30;;
50976;SDS011;36992;48.200;12.418;2023-12-20T10:33:06;0.60;;;0.13;;
50976;SDS011;36992;48.200;12.418;2023-12-20T10:35:33;0.55;;;0.20;;
50976;SDS011;36992;48.200;12.418;2023-12-20T10:38:01;0.47;;;0.10;;
50976;SDS011;36992;48.200;12.418;2023-12-20T10:40:31;0.82;;;0.10;;
50976;SDS011;36992;48.200;12.418;2023-12-20T10:42:58;0.22;;;0.10;;
50976;SDS011;36992;48.200;12.418;2023-12-20T10:45:27;0.63;;;0.20;;
50976;SDS011;36992;48.200;12.418;2023-12-20T10:47:54;0.60;;;0.20;;
50976;SDS011;36992;48.200;12.418;2023-12-20T10:50:21;0.30;;;0.10;;
50976;SDS011;36992;48.200;12.418;2023-12-20T10:52:48;0.77;;;0.55;;
50976;SDS011;36992;48.200;12.418;2023-12-20T10:55:20;0.40;;;0.10;;
50976;SDS011;36992;48.200;12.418;2023-12-20T10:57:48;0.30;;;0.10;;
50976;SDS011;36992;48.200;12.418;2023-12-20T11:00:17;0.60;;;0.20;;
50976;SDS011;36992;48.200;12.418;2023-12-20T11:02:44;0.32;;;0.10;;
50976;SDS011;36992;48.200;12.418;2023-12-20T11:05:13;0.65;;;0.10;;
50976;SDS011;36992;48.200;12.418;2023-12-20T11:07:49;1.50;;;0.40;;
50976;SDS011;36992;48.200;12.418;2023-12-20T11:10:23;1.65;;;0.22;;
50976;SDS011;36992;48.200;12.418;2023-12-20T11:12:54;2.53;;;0.20;;
50976;SDS011;36992;48.200;12.418;2023-12-20T11:15:28;0.40;;;0.10;;
50976;SDS011;36992;48.200;12.418;2023-12-20T11:17:55;0.35;;;0.10;;
50976;SDS011;36992;48.200;12.418;2023-12-20T11:20:22;0.40;;;0.10;;
50976;SDS011;36992;48.200;12.418;2023-12-20T11:22:53;0.60;;;0.25;;
50976;SDS011;36992;48.200;12.418;2023-12-20T11:25:20;0.50;;;0.20;;
50976;SDS011;36992;48.200;12.418;2023-12-20T11:28:06;0.95;;;0.20;;
50976;SDS011;36992;48.200;12.418;2023-12-20T11:30:41;0.70;;;0.20;;
50976;SDS011;36992;48.200;12.418;2023-12-20T11:33:08;0.75;;;0.20;;
50976;SDS011;36992;48.200;12.418;2023-12-20T11:35:35;1.17;;;0.40;;
50976;SDS011;36992;48.200;12.418;2023-12-20T11:38:02;0.70;;;0.30;;
50976;SDS011;36992;48.200;12.418;2023-12-20T11:40:29;1.00;;;0.32;;
50976;SDS011;36992;48.200;12.418;2023-12-20T11:43:02;0.65;;;0.20;;
50976;SDS011;36992;48.200;12.418;2023-12-20T11:45:29;0.70;;;0.20;;
50976;SDS011;36992;48.200;12.418;2023-12-20T11:47:56;1.20;;;0.35;;
50976;SDS011;36992;48.200;12.418;2023-12-20T11:50:22;1.90;;;0.47;;
50976;SDS011;36992;48.200;12.418;2023-12-20T11:52:50;1.45;;;0.40;;
50976;SDS011;36992;48.200;12.418;2023-12-20T11:55:18;0.95;;;0.28;;
50976;SDS011;36992;48.200;12.418;2023-12-20T11:57:45;1.50;;;0.30;;
50976;SDS011;36992;48.200;12.418;2023-12-20T12:00:13;1.23;;;0.35;;
50976;SDS011;36992;48.200;12.418;2023-12-20T12:02:40;1.55;;;0.60;;
50976;SDS011;36992;48.200;12.418;2023-12-20T12:05:07;1.42;;;0.45;;
50976;SDS011;36992;48.200;12.418;2023-12-20T12:07:34;2.22;;;0.57;;
50976;SDS011;36992;48.200;12.418;2023-12-20T12:10:01;1.58;;;0.40;;
50976;SDS011;36992;48.200;12.418;2023-12-20T12:12:28;1.15;;;0.45;;
50976;SDS011;36992;48.200;12.418;2023-12-20T12:14:56;1.38;;;0.50;;
50976;SDS011;36992;48.200;12.418;2023-12-20T12:17:24;1.75;;;0.40;;
50976;SDS011;36992;48.200;12.418;2023-12-20T12:19:50;1.10;;;0.30;;
50976;SDS011;36992;48.200;12.418;2023-12-20T12:22:27;1.63;;;0.40;;
50976;SDS011;36992;48.200;12.418;2023-12-20T12:24:54;0.70;;;0.30;;
50976;SDS011;36992;48.200;12.418;2023-12-20T12:27:25;0.75;;;0.30;;
50976;SDS011;36992;48.200;12.418;2023-12-20T12:30:02;1.15;;;0.20;;
50976;SDS011;36992;48.200;12.418;2023-12-20T12:32:33;1.13;;;0.30;;
50976;SDS011;36992;48.200;12.418;2023-12-20T12:35:00;1.90;;;0.82;;
50976;SDS011;36992;48.200;12.418;2023-12-20T12:37:28;1.50;;;0.40;;
50976;SDS011;36992;48.200;12.418;2023-12-20T12:39:55;1.73;;;0.30;;
50976;SDS011;36992;48.200;12.418;2023-12-20T12:42:21;0.90;;;0.30;;
50976;SDS011;36992;48.200;12.418;2023-12-20T12:44:50;1.23;;;0.40;;
50976;SDS011;36992;48.200;12.418;2023-12-20T12:47:17;0.63;;;0.32;;
50976;SDS011;36992;48.200;12.418;2023-12-20T12:49:45;0.52;;;0.20;;
50976;SDS011;36992;48.200;12.418;2023-12-20T12:52:11;0.55;;;0.20;;
50976;SDS011;36992;48.200;12.418;2023-12-20T12:54:38;0.82;;;0.40;;
50976;SDS011;36992;48.200;12.418;2023-12-20T12:57:05;0.75;;;0.30;;
50976;SDS011;36992;48.200;12.418;2023-12-20T12:59:31;1.20;;;0.40;;
50976;SDS011;36992;48.200;12.418;2023-12-20T13:01:58;0.88;;;0.20;;
50976;SDS011;36992;48.200;12.418;2023-12-20T13:04:24;1.15;;;0.30;;
50976;SDS011;36992;48.200;12.418;2023-12-20T13:06:52;1.27;;;0.22;;
50976;SDS011;36992;48.200;12.418;2023-12-20T13:09:19;1.05;;;0.28;;
50976;SDS011;36992;48.200;12.418;2023-12-20T13:11:45;0.75;;;0.30;;
50976;SDS011;36992;48.200;12.418;2023-12-20T13:14:12;0.70;;;0.30;;
50976;SDS011;36992;48.200;12.418;2023-12-20T13:16:40;3.03;;;0.38;;
50976;SDS011;36992;48.200;12.418;2023-12-20T13:19:07;0.95;;;0.28;;
50976;SDS011;36992;48.200;12.418;2023-12-20T13:21:34;0.88;;;0.20;;
50976;SDS011;36992;48.200;12.418;2023-12-20T13:24:03;1.35;;;0.30;;
50976;SDS011;36992;48.200;12.418;2023-12-20T13:26:30;0.80;;;0.30;;
50976;SDS011;36992;48.200;12.418;2023-12-20T13:28:56;1.25;;;0.50;;
50976;SDS011;36992;48.200;12.418;2023-12-20T13:31:23;1.25;;;0.20;;
50976;SDS011;36992;48.200;12.418;2023-12-20T13:33:49;1.90;;;0.22;;
50976;SDS011;36992;48.200;12.418;2023-12-20T13:36:18;0.93;;;0.30;;
50976;SDS011;36992;48.200;12.418;2023-12-20T13:38:44;0.50;;;0.20;;
50976;SDS011;36992;48.200;12.418;2023-12-20T13:41:12;0.80;;;0.30;;
50976;SDS011;36992;48.200;12.418;2023-12-20T13:43:39;2.30;;;0.30;;
50976;SDS011;36992;48.200;12.418;2023-12-20T13:46:05;2.08;;;0.30;;
50976;SDS011;36992;48.200;12.418;2023-12-20T13:48:32;1.60;;;0.30;;
50976;SDS011;36992;48.200;12.418;2023-12-20T13:50:58;0.90;;;0.20;;
50976;SDS011;36992;48.200;12.418;2023-12-20T13:53:28;1.42;;;0.28;;
50976;SDS011;36992;48.200;12.418;2023-12-20T13:55:55;2.78;;;0.40;;
50976;SDS011;36992;48.200;12.418;2023-12-20T13:58:24;1.30;;;0.50;;
50976;SDS011;36992;48.200;12.418;2023-12-20T14:00:50;1.17;;;0.40;;
50976;SDS011;36992;48.200;12.418;2023-12-20T14:03:17;1.77;;;0.40;;
50976;SDS011;36992;48.200;12.418;2023-12-20T14:05:44;1.17;;;0.50;;
50976;SDS011;36992;48.200;12.418;2023-12-20T14:08:11;2.35;;;0.60;;
50976;SDS011;36992;48.200;12.418;2023-12-20T14:10:38;1.70;;;0.57;;
50976;SDS011;36992;48.200;12.418;2023-12-20T14:13:04;3.40;;;1.48;;
50976;SDS011;36992;48.200;12.418;2023-12-20T14:15:32;2.00;;;0.60;;
50976;SDS011;36992;48.200;12.418;2023-12-20T14:18:02;3.25;;;0.70;;
50976;SDS011;36992;48.200;12.418;2023-12-20T14:20:31;2.45;;;0.85;;
50976;SDS011;36992;48.200;12.418;2023-12-20T14:22:59;1.33;;;0.40;;
50976;SDS011;36992;48.200;12.418;2023-12-20T14:25:26;1.60;;;0.60;;
50976;SDS011;36992;48.200;12.418;2023-12-20T14:27:52;1.27;;;0.63;;
50976;SDS011;36992;48.200;12.418;2023-12-20T14:30:19;2.03;;;0.82;;
50976;SDS011;36992;48.200;12.418;2023-12-20T14:32:47;1.88;;;0.60;;